createdAt,value
2023-03-05T00:01:18.752Z,0.31
2023-03-05T00:03:53.008Z,0.31
2023-03-05T00:06:27.657Z,0.30
2023-03-05T00:09:00.634Z,0.31
2023-03-05T00:11:33.852Z,0.27
2023-03-05T00:14:06.696Z,0.27
2023-03-05T00:16:41.142Z,0.21
2023-03-05T00:19:14.135Z,0.15
2023-03-05T00:21:46.640Z,0.09
2023-03-05T00:24:19.754Z,0.05
2023-03-05T00:26:53.293Z,-0.02
2023-03-05T00:29:26.365Z,-0.09
2023-03-05T00:32:00.622Z,-0.10
2023-03-05T00:34:33.832Z,-0.12
2023-03-05T00:37:06.596Z,-0.19
2023-03-05T00:39:39.419Z,-0.13
2023-03-05T00:42:12.228Z,-0.14
2023-03-05T00:44:44.864Z,-0.12
2023-03-05T00:47:19.528Z,-0.17
2023-03-05T00:49:51.951Z,-0.11
2023-03-05T00:52:24.995Z,-0.21
2023-03-05T00:54:57.509Z,-0.11
2023-03-05T00:57:31.178Z,-0.14
2023-03-05T01:00:05.052Z,-0.16
2023-03-05T01:02:39.506Z,-0.20
2023-03-05T01:05:13.702Z,-0.28
2023-03-05T01:07:46.530Z,-0.27
2023-03-05T01:10:18.984Z,-0.27
2023-03-05T01:12:51.680Z,-0.31
2023-03-05T01:15:25.491Z,-0.33
2023-03-05T01:17:59.970Z,-0.34
2023-03-05T01:20:32.791Z,-0.34
2023-03-05T01:23:06.589Z,-0.40
2023-03-05T01:25:39.555Z,-0.31
2023-03-05T01:28:12.318Z,-0.32
2023-03-05T01:30:45.038Z,-0.31
2023-03-05T01:33:20.522Z,-0.32
2023-03-05T01:35:53.348Z,-0.31
2023-03-05T01:38:26.455Z,-0.32
2023-03-05T01:40:58.859Z,-0.32
2023-03-05T01:43:31.980Z,-0.32
2023-03-05T01:46:28.191Z,-0.32
2023-03-05T01:49:17.294Z,-0.32
2023-03-05T01:51:57.518Z,-0.34
2023-03-05T01:54:34.428Z,-0.37
2023-03-05T01:57:11.402Z,-0.37
2023-03-05T01:59:47.249Z,-0.39
2023-03-05T02:02:22.692Z,-0.45
2023-03-05T02:05:00.819Z,-0.45
2023-03-05T02:07:37.830Z,-0.51
2023-03-05T02:10:19.038Z,-0.51
2023-03-05T02:12:53.571Z,-0.53
2023-03-05T02:15:27.074Z,-0.62
2023-03-05T02:18:01.439Z,-0.63
2023-03-05T02:20:47.125Z,-0.66
2023-03-05T02:23:23.055Z,-0.71
2023-03-05T02:25:56.761Z,-0.78
2023-03-05T02:28:34.025Z,-0.76
2023-03-05T02:31:10.171Z,-0.85
2023-03-05T02:33:43.254Z,-0.80
2023-03-05T02:36:16.574Z,-0.82
2023-03-05T02:38:53.094Z,-0.87
2023-03-05T02:41:27.089Z,-0.85
2023-03-05T02:44:01.921Z,-0.90
2023-03-05T02:46:35.037Z,-0.93
2023-03-05T02:49:07.497Z,-0.95
2023-03-05T02:51:40.656Z,-0.97
2023-03-05T02:54:15.309Z,-0.97
2023-03-05T02:56:48.459Z,-0.98
2023-03-05T02:59:20.837Z,-1.01
2023-03-05T03:01:53.946Z,-1.03
2023-03-05T03:04:26.588Z,-1.07
2023-03-05T03:06:59.085Z,-1.18
2023-03-05T03:09:35.033Z,-1.12
2023-03-05T03:12:08.245Z,-1.15
2023-03-05T03:14:43.021Z,-1.21
2023-03-05T03:17:17.508Z,-1.18
2023-03-05T03:19:50.321Z,-1.19
2023-03-05T03:22:23.529Z,-1.21
2023-03-05T03:24:57.508Z,-1.18
2023-03-05T03:27:30.214Z,-1.20
2023-03-05T03:30:04.954Z,-1.21
2023-03-05T03:32:38.419Z,-1.23
2023-03-05T03:35:12.594Z,-1.27
2023-03-05T03:37:45.335Z,-1.26
2023-03-05T03:40:19.640Z,-1.27
2023-03-05T03:42:52.878Z,-1.30
2023-03-05T03:45:25.279Z,-1.38
2023-03-05T03:47:58.039Z,-1.47
2023-03-05T03:50:31.191Z,-1.51
2023-03-05T03:53:03.628Z,-1.57
2023-03-05T03:55:38.070Z,-1.72
2023-03-05T03:58:10.760Z,-1.71
2023-03-05T04:00:43.969Z,-1.80
2023-03-05T04:03:16.425Z,-1.85
2023-03-05T04:05:49.159Z,-1.93
2023-03-05T04:08:21.780Z,-2.00
2023-03-05T04:10:56.274Z,-2.05
2023-03-05T04:13:29.034Z,-2.10
2023-03-05T04:16:02.128Z,-2.21
2023-03-05T04:18:34.651Z,-2.24
2023-03-05T04:21:07.555Z,-2.18
2023-03-05T04:23:40.754Z,-2.19
2023-03-05T04:26:14.923Z,-2.19
2023-03-05T04:28:48.522Z,-2.14
2023-03-05T04:31:21.700Z,-2.13
2023-03-05T04:33:54.792Z,-2.13
2023-03-05T04:36:27.793Z,-2.12
2023-03-05T04:39:00.773Z,-2.11
2023-03-05T04:41:34.707Z,-2.10
2023-03-05T04:44:08.038Z,-2.20
2023-03-05T04:46:40.943Z,-2.09
2023-03-05T04:49:13.624Z,-2.11
2023-03-05T04:51:46.804Z,-2.08
2023-03-05T04:54:19.252Z,-2.03
2023-03-05T04:56:53.699Z,-2.01
2023-03-05T04:59:26.240Z,-1.99
2023-03-05T05:01:59.074Z,-1.91
2023-03-05T05:04:32.061Z,-1.84
2023-03-05T05:07:05.443Z,-1.79
2023-03-05T05:09:38.745Z,-1.70
2023-03-05T05:12:13.232Z,-1.63
2023-03-05T05:14:45.664Z,-1.55
2023-03-05T05:17:18.749Z,-1.48
2023-03-05T05:19:51.178Z,-1.46
2023-03-05T05:22:24.241Z,-1.35
2023-03-05T05:24:57.521Z,-1.31
2023-03-05T05:27:31.415Z,-1.23
2023-03-05T05:30:04.710Z,-1.17
2023-03-05T05:32:37.611Z,-1.38
2023-03-05T05:35:11.411Z,-1.06
2023-03-05T05:37:44.311Z,-1.02
2023-03-05T05:40:17.729Z,-0.98
2023-03-05T05:42:51.629Z,-0.95
2023-03-05T05:45:24.753Z,-0.92
2023-03-05T05:47:57.990Z,-0.88
2023-03-05T05:50:30.497Z,-0.86
2023-03-05T05:53:03.511Z,-0.96
2023-03-05T05:55:35.888Z,-0.75
2023-03-05T05:58:10.293Z,-0.71
2023-03-05T06:00:43.013Z,-0.69
2023-03-05T06:03:15.565Z,-0.66
2023-03-05T06:05:48.688Z,-0.60
2023-03-05T06:08:21.233Z,-0.55
2023-03-05T06:10:55.124Z,-0.52
2023-03-05T06:13:29.002Z,-0.45
2023-03-05T06:16:04.203Z,-0.40
2023-03-05T06:18:37.052Z,-0.35
2023-03-05T06:21:12.768Z,-0.32
2023-03-05T06:23:46.491Z,-0.32
2023-03-05T06:26:21.226Z,-0.38
2023-03-05T06:28:55.532Z,-0.42
2023-03-05T06:31:30.307Z,-0.53
2023-03-05T06:34:02.771Z,-0.43
2023-03-05T06:36:36.027Z,-0.44
2023-03-05T06:39:09.320Z,-0.45
2023-03-05T06:41:42.314Z,-0.48
2023-03-05T06:44:16.047Z,-0.41
2023-03-05T06:46:48.753Z,-0.35
2023-03-05T06:49:21.768Z,-0.30
2023-03-05T06:51:54.627Z,-0.27
2023-03-05T06:54:27.081Z,-0.19
2023-03-05T06:56:59.923Z,-0.16
2023-03-05T06:59:33.666Z,-0.13
2023-03-05T07:02:07.048Z,-0.05
2023-03-05T07:04:39.544Z,0.00
2023-03-05T07:07:12.510Z,0.04
2023-03-05T07:09:46.388Z,0.10
2023-03-05T07:12:18.951Z,0.19
2023-03-05T07:14:53.022Z,0.25
2023-03-05T07:17:25.983Z,0.30
2023-03-05T07:19:58.782Z,0.36
2023-03-05T07:22:33.546Z,0.40
2023-03-05T07:25:10.994Z,0.53
2023-03-05T07:27:45.570Z,0.60
2023-03-05T07:30:19.881Z,0.67
2023-03-05T07:32:52.355Z,0.78
2023-03-05T07:35:25.210Z,0.78
2023-03-05T07:37:58.364Z,0.70
2023-03-05T07:40:31.546Z,0.64
2023-03-05T07:43:04.154Z,0.64
2023-03-05T07:45:42.469Z,0.67
2023-03-05T07:48:16.937Z,0.73
2023-03-05T07:50:49.911Z,0.82
2023-03-05T07:53:22.542Z,0.91
2023-03-05T07:55:55.514Z,0.98
2023-03-05T07:58:27.931Z,1.03
2023-03-05T08:01:02.692Z,1.10
2023-03-05T08:03:35.540Z,1.09
2023-03-05T08:06:08.871Z,1.23
2023-03-05T08:08:42.896Z,1.24
2023-03-05T08:11:16.815Z,1.23
2023-03-05T08:13:49.996Z,1.18
2023-03-05T08:16:26.168Z,1.03
2023-03-05T08:18:59.656Z,1.13
2023-03-05T08:21:33.919Z,1.15
2023-03-05T08:24:09.257Z,1.17
2023-03-05T08:26:42.256Z,1.27
2023-03-05T08:29:15.078Z,1.32
2023-03-05T08:31:49.914Z,1.22
2023-03-05T08:34:23.209Z,1.39
2023-03-05T08:36:55.994Z,1.38
2023-03-05T08:39:30.325Z,1.22
2023-03-05T08:42:04.646Z,1.36
2023-03-05T08:44:37.536Z,1.38
2023-03-05T08:47:11.687Z,1.42
2023-03-05T08:49:44.339Z,1.43
2023-03-05T08:52:16.990Z,1.41
2023-03-05T08:54:50.390Z,1.38
2023-03-05T08:57:22.824Z,1.38
2023-03-05T08:59:55.176Z,1.30
2023-03-05T09:02:30.225Z,1.27
2023-03-05T09:05:03.771Z,1.21
2023-03-05T09:07:38.265Z,1.11
2023-03-05T09:10:13.802Z,1.14
2023-03-05T09:12:46.590Z,1.13
2023-03-05T09:15:19.276Z,1.08
2023-03-05T09:17:53.998Z,1.22
2023-03-05T09:20:26.847Z,1.27
2023-03-05T09:22:59.982Z,1.30
2023-03-05T09:25:32.407Z,1.33
2023-03-05T09:28:05.481Z,1.35
2023-03-05T09:30:39.153Z,1.37
2023-03-05T09:33:13.030Z,1.37
2023-03-05T09:35:45.797Z,1.45
2023-03-05T09:38:19.393Z,1.50
2023-03-05T09:40:59.681Z,1.54
2023-03-05T09:43:44.353Z,1.61
2023-03-05T09:46:32.120Z,1.67
2023-03-05T09:49:15.058Z,1.72
2023-03-05T09:51:52.268Z,1.76
2023-03-05T09:54:32.886Z,1.69
2023-03-05T09:57:14.091Z,1.79
2023-03-05T09:59:50.600Z,1.77
2023-03-05T10:02:26.526Z,1.77
2023-03-05T10:05:05.067Z,1.77
2023-03-05T10:07:41.824Z,1.73
2023-03-05T10:10:18.502Z,1.83
2023-03-05T10:12:54.335Z,1.85
2023-03-05T10:15:38.566Z,1.84
2023-03-05T10:18:23.241Z,1.85
2023-03-05T10:21:00.426Z,1.80
2023-03-05T10:23:56.394Z,1.87
2023-03-05T10:26:44.962Z,1.89
2023-03-05T10:29:33.773Z,1.86
2023-03-05T10:32:18.696Z,1.89
2023-03-05T10:35:16.362Z,1.91
2023-03-05T10:38:36.795Z,1.92
2023-03-05T10:41:21.243Z,1.88
2023-03-05T10:44:01.996Z,1.87
2023-03-05T10:46:37.424Z,1.89
2023-03-05T10:49:19.367Z,1.91
2023-03-05T10:51:56.800Z,1.94
2023-03-05T10:54:33.079Z,1.83
2023-03-05T10:57:18.354Z,1.96
2023-03-05T10:59:53.428Z,1.98
2023-03-05T11:02:26.016Z,1.98
2023-03-05T11:04:58.775Z,2.00
2023-03-05T11:07:35.090Z,1.97
2023-03-05T11:10:17.366Z,2.01
2023-03-05T11:12:52.494Z,2.00
2023-03-05T11:15:30.385Z,1.98
2023-03-05T11:18:24.500Z,1.99
2023-03-05T11:21:08.622Z,2.01
2023-03-05T11:23:41.415Z,2.01
2023-03-05T11:26:22.342Z,2.03
2023-03-05T11:29:02.351Z,2.06
2023-03-05T11:31:35.465Z,2.10
2023-03-05T11:34:25.911Z,2.19
2023-03-05T11:37:09.034Z,2.15
2023-03-05T11:39:41.775Z,2.30
2023-03-05T11:42:24.265Z,2.30
2023-03-05T11:45:00.295Z,2.37
2023-03-05T11:47:40.229Z,2.40
2023-03-05T11:50:21.033Z,2.37
2023-03-05T11:52:57.368Z,2.43
2023-03-05T11:55:35.057Z,2.41
2023-03-05T11:58:25.200Z,2.37
2023-03-05T12:01:00.762Z,2.30
2023-03-05T12:03:35.863Z,2.32
2023-03-05T12:06:18.281Z,2.32
2023-03-05T12:08:55.283Z,2.39
2023-03-05T12:11:30.856Z,2.37
2023-03-05T12:14:10.282Z,2.46
2023-03-05T12:16:49.140Z,2.52
2023-03-05T12:19:45.673Z,2.54
2023-03-05T12:22:20.793Z,2.58
2023-03-05T12:24:53.687Z,2.57
2023-03-05T12:27:35.282Z,2.61
2023-03-05T12:30:47.298Z,2.57
2023-03-05T12:33:36.922Z,2.52
2023-03-05T12:36:37.720Z,2.50
2023-03-05T12:39:44.025Z,2.48
2023-03-05T12:42:46.222Z,2.44
2023-03-05T12:45:31.109Z,2.37
2023-03-05T12:48:43.221Z,2.30
2023-03-05T12:51:40.237Z,2.24
2023-03-05T12:54:32.428Z,2.20
2023-03-05T12:57:15.272Z,2.15
2023-03-05T12:59:54.992Z,2.15
2023-03-05T13:02:32.071Z,2.14
2023-03-05T13:05:14.427Z,2.15
2023-03-05T13:07:48.523Z,2.12
2023-03-05T13:10:24.398Z,2.04
2023-03-05T13:12:59.042Z,2.01
2023-03-05T13:15:32.821Z,2.00
2023-03-05T13:18:09.052Z,1.95
2023-03-05T13:20:42.849Z,1.88
2023-03-05T13:23:26.924Z,1.89
2023-03-05T13:26:02.249Z,1.87
2023-03-05T13:28:35.262Z,1.87
2023-03-05T13:31:14.440Z,1.88
2023-03-05T13:33:53.412Z,1.85
2023-03-05T13:36:27.490Z,1.83
2023-03-05T13:39:02.484Z,1.83
2023-03-05T13:41:35.645Z,1.79
2023-03-05T13:44:21.998Z,1.73
2023-03-05T13:47:06.507Z,1.79
2023-03-05T13:49:39.120Z,1.78
2023-03-05T13:52:12.358Z,1.78
2023-03-05T13:54:46.228Z,1.76
2023-03-05T13:57:35.493Z,1.77
2023-03-05T14:00:27.102Z,1.76
2023-03-05T14:03:07.378Z,1.74
2023-03-05T14:05:44.551Z,1.72
2023-03-05T14:08:21.739Z,1.73
2023-03-05T14:10:58.147Z,1.73
2023-03-05T14:13:32.215Z,1.73
2023-03-05T14:16:06.549Z,1.71
2023-03-05T14:18:52.727Z,1.72
2023-03-05T14:21:25.645Z,1.72
2023-03-05T14:24:11.352Z,1.72
2023-03-05T14:26:52.089Z,1.74
2023-03-05T14:29:26.577Z,1.75
2023-03-05T14:32:03.446Z,1.73
2023-03-05T14:34:39.916Z,1.73
2023-03-05T14:37:21.847Z,1.74
2023-03-05T14:39:56.892Z,1.71
2023-03-05T14:42:33.367Z,1.68
2023-03-05T14:45:12.779Z,1.63
2023-03-05T14:47:46.420Z,1.62
2023-03-05T14:50:21.790Z,1.61
2023-03-05T14:52:57.742Z,1.60
2023-03-05T14:55:32.097Z,1.58
2023-03-05T14:58:13.239Z,1.58
2023-03-05T15:00:46.036Z,1.57
2023-03-05T15:03:19.390Z,1.55
2023-03-05T15:05:55.016Z,1.54
2023-03-05T15:08:29.869Z,1.56
2023-03-05T15:11:04.361Z,1.54
2023-03-05T15:13:38.224Z,1.54
2023-03-05T15:16:16.801Z,1.52
2023-03-05T15:18:49.794Z,1.51
2023-03-05T15:21:22.733Z,1.51
2023-03-05T15:23:55.380Z,1.50
2023-03-05T15:26:28.254Z,1.50
2023-03-05T15:29:02.208Z,1.39
2023-03-05T15:31:38.822Z,1.47
2023-03-05T15:34:11.770Z,1.48
2023-03-05T15:36:44.753Z,1.45
2023-03-05T15:39:17.386Z,1.47
2023-03-05T15:41:50.224Z,1.38
2023-03-05T15:44:24.876Z,1.43
2023-03-05T15:46:57.853Z,1.30
2023-03-05T15:49:30.744Z,1.35
2023-03-05T15:52:03.964Z,1.30
2023-03-05T15:54:37.509Z,1.27
2023-03-05T15:57:12.586Z,1.26
2023-03-05T15:59:46.579Z,1.28
2023-03-05T16:02:19.707Z,1.26
2023-03-05T16:04:52.156Z,1.26
2023-03-05T16:07:25.248Z,1.25
2023-03-05T16:09:58.713Z,1.30
2023-03-05T16:12:41.130Z,1.30
2023-03-05T16:15:18.114Z,1.27
2023-03-05T16:17:54.788Z,1.32
2023-03-05T16:20:27.558Z,1.33
2023-03-05T16:23:00.184Z,1.32
2023-03-05T16:25:33.170Z,1.32
2023-03-05T16:28:06.494Z,1.32
2023-03-05T16:30:41.066Z,1.30
2023-03-05T16:33:14.057Z,1.28
2023-03-05T16:35:47.349Z,1.29
2023-03-05T16:38:20.382Z,1.29
2023-03-05T16:41:07.341Z,1.30
2023-03-05T16:43:41.120Z,1.33
2023-03-05T16:46:15.086Z,1.34
2023-03-05T16:48:49.627Z,1.33
2023-03-05T16:51:22.734Z,1.19
2023-03-05T16:53:55.902Z,1.37
2023-03-05T16:56:28.670Z,1.38
2023-03-05T16:59:01.788Z,1.39
2023-03-05T17:01:35.913Z,1.40
2023-03-05T17:04:08.720Z,1.38
2023-03-05T17:06:41.399Z,1.34
2023-03-05T17:09:14.502Z,1.36
2023-03-05T17:11:46.961Z,1.34
2023-03-05T17:14:20.199Z,1.30
2023-03-05T17:16:54.766Z,1.38
2023-03-05T17:19:27.655Z,1.39
2023-03-05T17:22:01.167Z,1.38
2023-03-05T17:24:33.672Z,1.36
2023-03-05T17:27:06.634Z,1.38
2023-03-05T17:29:39.666Z,1.21
2023-03-05T17:32:13.568Z,1.37
2023-03-05T17:34:46.305Z,1.38
2023-03-05T17:37:19.408Z,1.38
2023-03-05T17:39:52.270Z,1.39
2023-03-05T17:42:25.347Z,1.38
2023-03-05T17:44:59.340Z,1.37
2023-03-05T17:47:34.460Z,1.37
2023-03-05T17:50:08.437Z,1.36
2023-03-05T17:52:42.047Z,1.36
2023-03-05T17:55:17.359Z,1.36
2023-03-05T17:57:50.573Z,1.28
2023-03-05T18:00:25.512Z,1.32
2023-03-05T18:03:00.709Z,1.33
2023-03-05T18:05:33.363Z,1.32
2023-03-05T18:08:06.495Z,1.31
2023-03-05T18:10:39.480Z,1.32
2023-03-05T18:13:12.657Z,1.34
2023-03-05T18:15:48.218Z,1.33
2023-03-05T18:18:22.771Z,1.30
2023-03-05T18:20:55.837Z,1.20
2023-03-05T18:23:28.552Z,1.17
2023-03-05T18:26:01.173Z,1.23
2023-03-05T18:28:34.162Z,1.22
2023-03-05T18:31:06.960Z,1.20
2023-03-05T18:33:42.332Z,1.13
2023-03-05T18:36:15.249Z,1.21
2023-03-05T18:38:48.066Z,1.19
2023-03-05T18:41:24.005Z,1.21
2023-03-05T18:43:58.960Z,1.20
2023-03-05T18:46:31.887Z,1.16
2023-03-05T18:49:06.605Z,1.16
2023-03-05T18:51:41.671Z,1.13
2023-03-05T18:54:15.005Z,1.14
2023-03-05T18:56:48.436Z,1.10
2023-03-05T18:59:21.494Z,1.08
2023-03-05T19:01:54.161Z,1.07
2023-03-05T19:04:28.474Z,1.05
2023-03-05T19:07:04.868Z,1.06
2023-03-05T19:09:54.843Z,1.07
2023-03-05T19:12:31.853Z,1.07
2023-03-05T19:15:06.666Z,1.06
2023-03-05T19:17:39.545Z,1.06
2023-03-05T19:20:14.396Z,1.05
2023-03-05T19:22:47.757Z,1.05
2023-03-05T19:25:20.256Z,1.05
2023-03-05T19:27:53.065Z,1.07
2023-03-05T19:30:25.821Z,1.05
2023-03-05T19:32:58.904Z,1.04
2023-03-05T19:35:33.244Z,1.07
2023-03-05T19:38:05.729Z,1.07
2023-03-05T19:40:40.825Z,1.04
2023-03-05T19:43:13.458Z,1.07
2023-03-05T19:45:46.475Z,1.08
2023-03-05T19:48:19.223Z,1.08
2023-03-05T19:50:53.710Z,1.05
2023-03-05T19:53:26.909Z,1.06
2023-03-05T19:56:03.119Z,1.03
2023-03-05T19:58:36.758Z,0.98
2023-03-05T20:01:11.396Z,0.83
2023-03-05T20:03:45.705Z,0.99
2023-03-05T20:06:20.057Z,0.98
2023-03-05T20:08:53.496Z,0.99
2023-03-05T20:11:26.725Z,0.79
2023-03-05T20:14:01.602Z,1.01
2023-03-05T20:16:35.885Z,1.02
2023-03-05T20:19:10.930Z,0.93
2023-03-05T20:21:45.643Z,1.02
2023-03-05T20:24:20.572Z,0.96
2023-03-05T20:26:53.037Z,1.00
2023-03-05T20:29:26.203Z,0.94
2023-03-05T20:31:59.956Z,0.97
2023-03-05T20:34:32.722Z,0.98
2023-03-05T20:37:07.574Z,0.96
2023-03-05T20:39:40.675Z,0.96
2023-03-05T20:42:13.476Z,0.94
2023-03-05T20:44:46.347Z,0.93
2023-03-05T20:47:41.014Z,0.93
2023-03-05T20:50:15.435Z,0.89
2023-03-05T20:52:49.264Z,0.91
2023-03-05T20:55:23.557Z,0.91
2023-03-05T20:57:56.984Z,0.91
2023-03-05T21:00:30.031Z,0.87
2023-03-05T21:03:03.000Z,0.87
2023-03-05T21:05:37.051Z,0.92
2023-03-05T21:08:10.855Z,0.92
2023-03-05T21:10:44.000Z,0.84
2023-03-05T21:13:16.598Z,0.88
2023-03-05T21:15:49.398Z,0.85
2023-03-05T21:18:22.111Z,0.82
2023-03-05T21:20:55.183Z,0.80
2023-03-05T21:23:29.723Z,0.79
2023-03-05T21:26:04.560Z,0.79
2023-03-05T21:28:39.053Z,0.77
2023-03-05T21:31:15.801Z,0.74
2023-03-05T21:33:48.535Z,0.74
2023-03-05T21:36:21.648Z,0.73
2023-03-05T21:38:55.556Z,0.73
2023-03-05T21:41:28.646Z,0.74
2023-03-05T21:44:04.229Z,0.74
2023-03-05T21:46:37.609Z,0.73
2023-03-05T21:49:10.402Z,0.76
2023-03-05T21:52:12.356Z,0.78
2023-03-05T21:54:47.015Z,0.78
2023-03-05T21:57:19.696Z,0.80
2023-03-05T21:59:53.028Z,0.79
2023-03-05T22:02:25.846Z,0.79
2023-03-05T22:04:59.081Z,0.76
2023-03-05T22:07:31.628Z,0.77
2023-03-05T22:10:07.324Z,0.77
2023-03-05T22:13:11.883Z,0.73
2023-03-05T22:15:46.997Z,0.76
2023-03-05T22:18:22.893Z,0.75
2023-03-05T22:20:56.159Z,0.72
2023-03-05T22:23:31.953Z,0.71
2023-03-05T22:26:07.958Z,0.64
2023-03-05T22:28:41.211Z,0.65
2023-03-05T22:31:21.558Z,0.62
2023-03-05T22:33:54.438Z,0.56
2023-03-05T22:36:26.895Z,0.44
2023-03-05T22:38:59.611Z,0.48
2023-03-05T22:41:34.490Z,0.44
2023-03-05T22:44:06.884Z,0.42
2023-03-05T22:46:39.847Z,0.38
2023-03-05T22:49:12.334Z,0.41
2023-03-05T22:51:45.099Z,0.42
2023-03-05T22:54:17.418Z,0.36
2023-03-05T22:56:51.953Z,0.43
2023-03-05T22:59:24.739Z,0.42
2023-03-05T23:01:57.937Z,0.37
2023-03-05T23:04:53.756Z,0.46
2023-03-05T23:07:27.739Z,0.46
2023-03-05T23:10:03.513Z,0.47
2023-03-05T23:12:41.212Z,0.46
2023-03-05T23:15:16.421Z,0.44
2023-03-05T23:17:49.744Z,0.50
2023-03-05T23:20:25.261Z,0.51
2023-03-05T23:22:58.063Z,0.48
2023-03-05T23:25:33.443Z,0.48
2023-03-05T23:28:07.247Z,0.48
2023-03-05T23:30:40.242Z,0.46
2023-03-05T23:33:15.384Z,0.45
2023-03-05T23:35:53.183Z,0.44
2023-03-05T23:38:28.087Z,0.44
2023-03-05T23:41:03.253Z,0.43
2023-03-05T23:43:37.124Z,0.43
2023-03-05T23:46:11.746Z,0.41
2023-03-05T23:48:44.257Z,0.42
2023-03-05T23:51:17.565Z,0.40
2023-03-05T23:53:50.235Z,0.40
2023-03-05T23:56:23.381Z,0.40
2023-03-05T23:59:00.649Z,0.39
